createdAt,value
2019-04-01T00:01:59.079Z,11.95
2019-04-01T00:04:32.140Z,11.18
2019-04-01T00:07:05.107Z,12.43
2019-04-01T00:09:38.723Z,11.55
2019-04-01T00:12:12.933Z,11.95
2019-04-01T00:14:46.959Z,10.98
2019-04-01T00:17:21.062Z,10.15
2019-04-01T00:19:54.653Z,9.23
2019-04-01T00:22:29.147Z,9.18
2019-04-01T00:25:02.457Z,9.90
2019-04-01T00:27:36.682Z,9.00
2019-04-01T00:30:09.151Z,9.38
2019-04-01T00:32:43.415Z,9.15
2019-04-01T00:35:16.979Z,9.80
2019-04-01T00:37:50.464Z,8.43
2019-04-01T00:40:24.612Z,8.68
2019-04-01T00:43:21.914Z,9.00
2019-04-01T00:45:56.829Z,9.13
2019-04-01T00:48:31.153Z,8.10
2019-04-01T00:51:04.712Z,8.08
2019-04-01T00:53:38.021Z,8.28
2019-04-01T00:56:11.714Z,7.92
2019-04-01T00:58:45.805Z,8.88
2019-04-01T01:01:19.510Z,8.25
2019-04-01T01:03:53.235Z,7.30
2019-04-01T01:06:27.451Z,7.30
2019-04-01T01:09:01.670Z,6.65
2019-04-01T01:11:35.168Z,6.60
2019-04-01T01:14:09.714Z,6.72
2019-04-01T01:16:43.423Z,6.70
2019-04-01T01:19:16.677Z,5.85
2019-04-01T01:21:50.899Z,6.30
2019-04-01T01:24:23.975Z,6.97
2019-04-01T01:26:58.189Z,6.72
2019-04-01T01:29:32.047Z,6.20
2019-04-01T01:32:06.106Z,6.28
2019-04-01T01:34:39.419Z,5.53
2019-04-01T01:37:13.614Z,5.45
2019-04-01T01:39:46.949Z,5.45
2019-04-01T01:42:20.819Z,5.30
2019-04-01T01:44:54.115Z,5.83
2019-04-01T01:47:27.745Z,5.67
2019-04-01T01:50:01.448Z,5.58
2019-04-01T01:52:34.638Z,5.75
2019-04-01T01:55:07.910Z,5.37
2019-04-01T01:57:42.039Z,6.20
2019-04-01T02:00:16.316Z,5.60
2019-04-01T02:02:50.500Z,5.80
2019-04-01T02:05:24.308Z,5.28
2019-04-01T02:07:58.428Z,5.60
2019-04-01T02:10:31.821Z,5.62
2019-04-01T02:13:05.808Z,5.33
2019-04-01T02:15:39.593Z,4.42
2019-04-01T02:18:13.894Z,5.37
2019-04-01T02:20:47.641Z,5.15
2019-04-01T02:23:20.429Z,5.65
2019-04-01T02:25:53.634Z,5.03
2019-04-01T02:28:27.235Z,5.80
2019-04-01T02:31:01.400Z,5.65
2019-04-01T02:33:34.572Z,6.15
2019-04-01T02:36:08.964Z,5.40
2019-04-01T02:38:43.121Z,6.28
2019-04-01T02:41:17.170Z,5.92
2019-04-01T02:43:50.746Z,6.30
2019-04-01T02:46:24.371Z,6.17
2019-04-01T02:48:58.129Z,6.45
2019-04-01T02:51:31.872Z,5.95
2019-04-01T02:54:05.565Z,6.00
2019-04-01T02:56:39.184Z,5.60
2019-04-01T02:59:13.280Z,6.22
2019-04-01T03:01:46.984Z,5.95
2019-04-01T03:04:20.893Z,6.15
2019-04-01T03:06:55.155Z,5.87
2019-04-01T03:09:28.723Z,6.03
2019-04-01T03:12:02.659Z,6.05
2019-04-01T03:14:36.317Z,5.53
2019-04-01T03:17:10.111Z,6.05
2019-04-01T03:19:43.947Z,5.62
2019-04-01T03:22:17.589Z,6.50
2019-04-01T03:24:51.806Z,6.37
2019-04-01T03:27:25.895Z,6.12
2019-04-01T03:29:59.654Z,6.33
2019-04-01T03:32:33.781Z,6.25
2019-04-01T03:35:07.409Z,6.20
2019-04-01T03:37:41.526Z,6.10
2019-04-01T03:40:14.838Z,5.58
2019-04-01T03:42:48.647Z,6.60
2019-04-01T03:45:22.457Z,6.72
2019-04-01T03:47:56.681Z,7.00
2019-04-01T03:50:30.869Z,6.53
2019-04-01T03:53:04.575Z,6.50
2019-04-01T03:55:37.452Z,6.17
2019-04-01T03:58:11.640Z,6.90
2019-04-01T04:00:45.178Z,6.28
2019-04-01T04:03:18.871Z,7.25
2019-04-01T04:05:52.548Z,6.70
2019-04-01T04:08:26.796Z,6.75
2019-04-01T04:11:00.889Z,7.72
2019-04-01T04:13:34.500Z,6.60
2019-04-01T04:16:08.953Z,5.87
2019-04-01T04:18:42.215Z,6.12
2019-04-01T04:21:16.064Z,6.33
2019-04-01T04:23:49.920Z,7.53
2019-04-01T04:26:24.029Z,6.58
2019-04-01T04:28:58.144Z,6.20
2019-04-01T04:31:31.361Z,7.30
2019-04-01T04:34:04.713Z,7.40
2019-04-01T04:36:38.473Z,6.95
2019-04-01T04:39:12.165Z,7.83
2019-04-01T04:41:46.400Z,7.78
2019-04-01T04:44:20.232Z,6.35
2019-04-01T04:46:54.430Z,7.42
2019-04-01T04:49:28.618Z,7.15
2019-04-01T04:52:04.619Z,7.00
2019-04-01T04:54:38.406Z,8.75
2019-04-01T04:57:12.189Z,10.20
2019-04-01T04:59:46.405Z,10.43
2019-04-01T05:02:20.598Z,10.82
2019-04-01T05:04:54.561Z,9.88
2019-04-01T05:07:31.281Z,8.83
2019-04-01T05:10:03.606Z,9.08
2019-04-01T05:12:39.127Z,9.00
2019-04-01T05:15:12.802Z,8.38
2019-04-01T05:17:47.019Z,8.10
2019-04-01T05:20:20.767Z,7.90
2019-04-01T05:22:56.539Z,8.65
2019-04-01T05:25:32.007Z,7.87
2019-04-01T05:28:06.543Z,8.25
2019-04-01T05:30:42.547Z,7.10
2019-04-01T05:33:20.349Z,6.70
2019-04-01T05:35:53.719Z,6.70
2019-04-01T05:38:27.170Z,6.22
2019-04-01T05:41:01.742Z,6.55
2019-04-01T05:43:35.598Z,6.22
2019-04-01T05:46:08.941Z,6.28
2019-04-01T05:48:43.086Z,6.30
2019-04-01T05:51:15.842Z,6.92
2019-04-01T05:53:50.162Z,7.10
2019-04-01T05:56:24.360Z,7.42
2019-04-01T05:58:58.496Z,7.25
2019-04-01T06:01:50.732Z,7.25
2019-04-01T06:04:24.969Z,6.97
2019-04-01T06:06:58.377Z,7.25
2019-04-01T06:09:32.053Z,7.55
2019-04-01T06:12:05.856Z,7.37
2019-04-01T06:14:39.507Z,8.25
2019-04-01T06:17:12.740Z,9.25
2019-04-01T06:19:46.152Z,10.43
2019-04-01T06:22:20.593Z,10.25
2019-04-01T06:24:54.898Z,8.70
2019-04-01T06:27:28.515Z,5.83
2019-04-01T06:30:03.333Z,5.10
2019-04-01T06:32:36.955Z,4.83
2019-04-01T06:35:11.309Z,5.37
2019-04-01T06:37:45.434Z,5.15
2019-04-01T06:40:19.778Z,5.90
2019-04-01T06:42:54.016Z,5.25
2019-04-01T06:45:28.010Z,6.65
2019-04-01T06:48:01.702Z,9.63
2019-04-01T06:50:35.445Z,8.55
2019-04-01T06:53:09.545Z,7.25
2019-04-01T06:55:43.512Z,6.37
2019-04-01T06:58:17.137Z,6.10
2019-04-01T07:00:51.348Z,6.08
2019-04-01T07:03:25.844Z,6.00
2019-04-01T07:05:59.192Z,4.87
2019-04-01T07:08:33.040Z,4.50
2019-04-01T07:11:07.268Z,3.72
2019-04-01T07:13:41.160Z,4.80
2019-04-01T07:16:16.206Z,3.95
2019-04-01T07:18:49.665Z,4.47
2019-04-01T07:21:23.397Z,4.62
2019-04-01T07:23:56.842Z,4.20
2019-04-01T07:26:30.228Z,4.40
2019-04-01T07:29:03.968Z,5.08
2019-04-01T07:31:37.249Z,3.98
2019-04-01T07:34:09.942Z,5.03
2019-04-01T07:36:43.219Z,5.40
2019-04-01T07:39:17.613Z,5.12
2019-04-01T07:41:50.544Z,5.37
2019-04-01T07:44:24.201Z,5.22
2019-04-01T07:46:57.324Z,5.30
2019-04-01T07:49:29.353Z,4.62
2019-04-01T07:52:01.676Z,3.80
2019-04-01T07:54:34.630Z,3.77
2019-04-01T07:57:06.978Z,3.22
2019-04-01T07:59:40.254Z,3.95
2019-04-01T08:02:14.114Z,3.77
2019-04-01T08:04:47.445Z,2.83
2019-04-01T08:07:19.805Z,3.02
2019-04-01T08:09:54.482Z,2.40
2019-04-01T08:12:28.076Z,2.35
2019-04-01T08:15:02.367Z,1.98
2019-04-01T08:17:35.538Z,1.20
2019-04-01T08:20:08.503Z,1.70
2019-04-01T08:22:43.286Z,1.50
2019-04-01T08:25:15.068Z,1.85
2019-04-01T08:27:47.896Z,1.95
2019-04-01T08:30:21.398Z,1.65
2019-04-01T08:32:54.824Z,1.85
2019-04-01T08:35:28.248Z,1.60
2019-04-01T08:38:01.599Z,1.70
2019-04-01T08:40:35.137Z,1.60
2019-04-01T08:43:07.148Z,1.37
2019-04-01T08:45:40.317Z,1.57
2019-04-01T08:48:13.769Z,1.50
2019-04-01T08:50:47.252Z,1.65
2019-04-01T08:53:20.893Z,1.37
2019-04-01T08:56:00.512Z,1.60
2019-04-01T08:58:28.223Z,1.57
2019-04-01T09:01:00.586Z,1.50
2019-04-01T09:03:33.397Z,1.37
2019-04-01T09:06:07.415Z,1.77
2019-04-01T09:08:43.532Z,2.85
2019-04-01T09:11:17.269Z,3.00
2019-04-01T09:13:51.578Z,4.87
2019-04-01T09:16:25.766Z,2.75
2019-04-01T09:18:59.524Z,2.10
2019-04-01T09:21:33.901Z,1.72
2019-04-01T09:24:07.800Z,1.60
2019-04-01T09:26:41.964Z,1.67
2019-04-01T09:29:16.163Z,1.67
2019-04-01T09:31:49.733Z,1.72
2019-04-01T09:34:23.339Z,1.70
2019-04-01T09:36:57.594Z,1.57
2019-04-01T09:39:31.504Z,1.60
2019-04-01T09:42:05.524Z,1.90
2019-04-01T09:44:39.114Z,1.52
2019-04-01T09:47:13.188Z,2.30
2019-04-01T09:49:47.315Z,1.30
2019-04-01T09:52:20.651Z,1.75
2019-04-01T09:54:53.939Z,2.33
2019-04-01T09:57:27.706Z,2.10
2019-04-01T10:00:00.925Z,2.30
2019-04-01T10:02:35.053Z,4.70
2019-04-01T10:05:08.042Z,1.62
2019-04-01T10:07:42.200Z,1.90
2019-04-01T10:10:16.509Z,5.42
2019-04-01T10:12:50.300Z,2.00
2019-04-01T10:15:25.422Z,1.87
2019-04-01T10:17:59.036Z,2.00
2019-04-01T10:20:33.079Z,2.10
2019-04-01T10:23:07.598Z,1.98
2019-04-01T10:25:41.866Z,2.20
2019-04-01T10:28:15.827Z,1.90
2019-04-01T10:30:48.840Z,1.85
2019-04-01T10:33:22.740Z,2.83
2019-04-01T10:35:56.869Z,2.27
2019-04-01T10:38:29.303Z,2.40
2019-04-01T10:41:02.072Z,2.10
2019-04-01T10:43:35.702Z,2.25
2019-04-01T10:46:12.197Z,2.08
2019-04-01T10:48:45.267Z,2.60
2019-04-01T10:51:18.558Z,2.85
2019-04-01T10:53:52.317Z,2.60
2019-04-01T10:56:25.240Z,2.00
2019-04-01T10:58:58.539Z,2.05
2019-04-01T11:01:32.278Z,1.52
2019-04-01T11:04:06.089Z,2.02
2019-04-01T11:06:40.237Z,2.45
2019-04-01T11:09:13.668Z,2.20
2019-04-01T11:11:47.488Z,2.55
2019-04-01T11:14:22.163Z,2.30
2019-04-01T11:16:57.077Z,1.95
2019-04-01T11:19:30.689Z,1.87
2019-04-01T11:22:04.382Z,2.65
2019-04-01T11:24:38.220Z,2.30
2019-04-01T11:27:12.402Z,2.05
2019-04-01T11:29:46.106Z,1.95
2019-04-01T11:32:19.477Z,2.00
2019-04-01T11:34:55.977Z,1.92
2019-04-01T11:37:28.982Z,8.58
2019-04-01T11:40:03.076Z,2.20
2019-04-01T11:42:40.327Z,2.10
2019-04-01T11:45:13.229Z,1.85
2019-04-01T11:47:47.208Z,2.00
2019-04-01T11:50:20.442Z,2.30
2019-04-01T11:52:53.294Z,1.90
2019-04-01T11:55:25.703Z,2.10
2019-04-01T11:57:57.971Z,2.20
2019-04-01T12:00:31.380Z,1.65
2019-04-01T12:03:04.545Z,2.10
2019-04-01T12:05:38.771Z,1.98
2019-04-01T12:08:11.162Z,1.72
2019-04-01T12:10:44.729Z,2.55
2019-04-01T12:13:17.758Z,1.47
2019-04-01T12:15:51.258Z,1.90
2019-04-01T12:18:24.615Z,2.98
2019-04-01T12:20:58.481Z,1.85
2019-04-01T12:23:31.389Z,1.42
2019-04-01T12:26:15.170Z,4.47
2019-04-01T12:28:38.580Z,1.60
2019-04-01T12:31:13.032Z,1.90
2019-04-01T12:33:46.851Z,1.60
2019-04-01T12:36:19.665Z,1.70
2019-04-01T12:38:53.845Z,1.80
2019-04-01T12:41:27.024Z,1.55
2019-04-01T12:44:00.327Z,1.52
2019-04-01T12:46:34.445Z,1.50
2019-04-01T12:49:08.151Z,1.40
2019-04-01T12:51:40.920Z,1.90
2019-04-01T12:54:15.212Z,1.87
2019-04-01T12:56:49.342Z,1.60
2019-04-01T12:59:22.164Z,1.60
2019-04-01T13:01:55.085Z,3.10
2019-04-01T13:04:28.782Z,1.80
2019-04-01T13:07:05.084Z,2.12
2019-04-01T13:09:38.496Z,1.45
2019-04-01T13:12:12.486Z,1.70
2019-04-01T13:14:46.056Z,2.10
2019-04-01T13:17:20.994Z,1.70
2019-04-01T13:19:55.007Z,1.80
2019-04-01T13:22:28.777Z,1.50
2019-04-01T13:25:05.632Z,1.90
2019-04-01T13:27:38.489Z,1.98
2019-04-01T13:30:12.353Z,1.55
2019-04-01T13:32:46.998Z,2.00
2019-04-01T13:35:21.094Z,4.35
2019-04-01T13:37:55.206Z,1.67
2019-04-01T13:40:28.774Z,1.42
2019-04-01T13:43:04.605Z,1.87
2019-04-01T13:45:38.263Z,1.42
2019-04-01T13:48:12.032Z,1.80
2019-04-01T13:50:45.662Z,1.70
2019-04-01T13:53:19.424Z,1.92
2019-04-01T13:55:52.638Z,1.72
2019-04-01T13:58:26.249Z,1.92
2019-04-01T14:00:59.752Z,1.85
2019-04-01T14:03:33.024Z,1.52
2019-04-01T14:06:06.384Z,1.75
2019-04-01T14:08:40.146Z,1.70
2019-04-01T14:11:13.793Z,1.80
2019-04-01T14:13:48.061Z,1.57
2019-04-01T14:16:22.197Z,1.92
2019-04-01T14:18:55.796Z,1.85
2019-04-01T14:21:29.996Z,2.10
2019-04-01T14:24:03.878Z,2.70
2019-04-01T14:26:37.910Z,3.22
2019-04-01T14:29:11.919Z,2.35
2019-04-01T14:31:45.153Z,2.08
2019-04-01T14:34:23.328Z,2.10
2019-04-01T14:36:53.541Z,1.70
2019-04-01T14:39:26.777Z,1.90
2019-04-01T14:42:00.366Z,2.25
2019-04-01T14:44:36.728Z,1.70
2019-04-01T14:47:11.133Z,1.92
2019-04-01T14:49:44.896Z,1.75
2019-04-01T14:52:31.687Z,1.67
2019-04-01T14:54:55.192Z,1.62
2019-04-01T14:57:30.246Z,1.60
2019-04-01T15:00:04.370Z,2.00
2019-04-01T15:02:36.930Z,1.75
2019-04-01T15:05:08.902Z,1.50
2019-04-01T15:07:42.222Z,1.75
2019-04-01T15:10:15.219Z,1.50
2019-04-01T15:12:48.408Z,1.92
2019-04-01T15:15:21.328Z,2.12
2019-04-01T15:17:53.756Z,2.20
2019-04-01T15:20:26.434Z,1.90
2019-04-01T15:22:58.495Z,2.00
2019-04-01T15:25:31.778Z,1.80
2019-04-01T15:28:05.887Z,2.02
2019-04-01T15:30:38.313Z,2.30
2019-04-01T15:33:11.307Z,2.00
2019-04-01T15:35:45.075Z,2.22
2019-04-01T15:38:18.662Z,2.17
2019-04-01T15:40:51.143Z,2.27
2019-04-01T15:43:23.131Z,2.52
2019-04-01T15:45:55.855Z,2.22
2019-04-01T15:48:29.166Z,2.60
2019-04-01T15:51:01.579Z,2.60
2019-04-01T15:53:34.855Z,2.80
2019-04-01T15:56:07.846Z,3.27
2019-04-01T15:58:40.117Z,3.10
2019-04-01T16:01:12.428Z,2.42
2019-04-01T16:03:45.564Z,2.80
2019-04-01T16:06:17.576Z,2.30
2019-04-01T16:08:50.310Z,2.02
2019-04-01T16:11:22.743Z,2.20
2019-04-01T16:13:55.752Z,2.65
2019-04-01T16:16:29.078Z,2.12
2019-04-01T16:19:02.288Z,2.50
2019-04-01T16:21:35.540Z,2.10
2019-04-01T16:24:10.934Z,3.77
2019-04-01T16:26:43.274Z,2.77
2019-04-01T16:29:16.793Z,2.83
2019-04-01T16:31:49.592Z,2.87
2019-04-01T16:34:22.599Z,2.55
2019-04-01T16:36:55.076Z,3.15
2019-04-01T16:39:27.507Z,3.65
2019-04-01T16:42:01.671Z,3.90
2019-04-01T16:44:35.426Z,4.70
2019-04-01T16:47:10.184Z,4.80
2019-04-01T16:49:44.576Z,4.87
2019-04-01T16:52:18.124Z,4.37
2019-04-01T16:55:04.478Z,4.10
2019-04-01T16:57:38.186Z,3.72
2019-04-01T17:00:14.727Z,3.65
2019-04-01T17:02:50.015Z,4.20
2019-04-01T17:05:30.175Z,3.42
2019-04-01T17:08:03.362Z,7.30
2019-04-01T17:10:38.281Z,11.15
2019-04-01T17:13:13.489Z,6.90
2019-04-01T17:15:48.011Z,7.12
2019-04-01T17:18:23.148Z,9.60
2019-04-01T17:20:57.356Z,8.15
2019-04-01T17:23:31.029Z,7.15
2019-04-01T17:26:04.046Z,8.85
2019-04-01T17:28:38.185Z,8.73
2019-04-01T17:31:12.321Z,13.05
2019-04-01T17:33:45.484Z,12.78
2019-04-01T17:36:19.202Z,15.15
2019-04-01T17:38:53.430Z,12.80
2019-04-01T17:41:26.755Z,9.25
2019-04-01T17:44:00.909Z,9.68
2019-04-01T17:46:34.613Z,9.55
2019-04-01T17:49:08.535Z,10.35
2019-04-01T17:51:41.837Z,8.95
2019-04-01T17:54:15.185Z,10.60
2019-04-01T17:56:49.529Z,8.53
2019-04-01T17:59:23.755Z,10.72
2019-04-01T18:01:57.151Z,9.78
2019-04-01T18:04:31.062Z,10.72
2019-04-01T18:07:05.383Z,9.83
2019-04-01T18:09:38.878Z,10.80
2019-04-01T18:12:10.937Z,10.08
2019-04-01T18:14:42.945Z,8.90
2019-04-01T18:17:18.445Z,10.43
2019-04-01T18:19:49.495Z,10.28
2019-04-01T18:22:21.903Z,11.85
2019-04-01T18:24:55.675Z,13.60
2019-04-01T18:27:27.638Z,13.45
2019-04-01T18:30:00.478Z,13.55
2019-04-01T18:32:34.251Z,18.57
2019-04-01T18:35:06.856Z,103.00
2019-04-01T18:37:39.323Z,99.05
2019-04-01T18:40:12.552Z,65.78
2019-04-01T18:42:45.709Z,46.53
2019-04-01T18:45:18.296Z,47.48
2019-04-01T18:47:51.136Z,40.73
2019-04-01T18:50:24.147Z,37.42
2019-04-01T18:52:57.922Z,27.22
2019-04-01T18:55:32.064Z,26.12
2019-04-01T18:58:05.691Z,20.82
2019-04-01T19:00:39.779Z,21.05
2019-04-01T19:03:13.311Z,33.83
2019-04-01T19:05:47.046Z,39.67
2019-04-01T19:08:20.182Z,46.20
2019-04-01T19:11:01.821Z,44.27
2019-04-01T19:13:26.208Z,42.10
2019-04-01T19:16:00.838Z,30.23
2019-04-01T19:18:34.272Z,26.48
2019-04-01T19:21:08.217Z,24.07
2019-04-01T19:23:42.068Z,21.23
2019-04-01T19:26:14.483Z,19.82
2019-04-01T19:28:47.229Z,14.33
2019-04-01T19:31:23.112Z,13.22
2019-04-01T19:33:55.613Z,12.23
2019-04-01T19:36:27.683Z,11.03
2019-04-01T19:39:00.684Z,14.35
2019-04-01T19:41:33.568Z,12.03
2019-04-01T19:44:06.731Z,11.08
2019-04-01T19:46:39.654Z,12.23
2019-04-01T19:49:12.493Z,11.35
2019-04-01T19:51:45.424Z,12.13
2019-04-01T19:54:27.995Z,12.33
2019-04-01T19:56:52.415Z,13.35
2019-04-01T19:59:26.064Z,13.22
2019-04-01T20:01:59.775Z,11.93
2019-04-01T20:04:32.705Z,11.88
2019-04-01T20:07:05.061Z,10.68
2019-04-01T20:09:37.364Z,11.15
2019-04-01T20:12:11.216Z,11.45
2019-04-01T20:14:45.720Z,11.80
2019-04-01T20:17:18.620Z,11.43
2019-04-01T20:19:51.332Z,10.18
2019-04-01T20:22:23.791Z,11.18
2019-04-01T20:24:57.139Z,10.95
2019-04-01T20:27:29.530Z,11.00
2019-04-01T20:30:02.555Z,12.35
2019-04-01T20:32:35.894Z,15.38
2019-04-01T20:35:22.264Z,18.40
2019-04-01T20:37:44.043Z,16.80
2019-04-01T20:40:16.719Z,16.37
2019-04-01T20:42:50.938Z,13.80
2019-04-01T20:45:23.051Z,12.43
2019-04-01T20:47:55.371Z,12.45
2019-04-01T20:50:29.035Z,10.60
2019-04-01T20:53:01.567Z,10.45
2019-04-01T20:55:33.927Z,9.90
2019-04-01T20:58:06.285Z,9.35
2019-04-01T21:00:38.738Z,9.85
2019-04-01T21:03:11.493Z,9.35
2019-04-01T21:05:44.857Z,10.70
2019-04-01T21:08:17.754Z,11.28
2019-04-01T21:10:51.302Z,10.60
2019-04-01T21:13:23.636Z,10.23
2019-04-01T21:15:56.941Z,11.33
2019-04-01T21:18:29.872Z,12.70
2019-04-01T21:21:03.344Z,12.23
2019-04-01T21:23:36.108Z,12.93
2019-04-01T21:26:08.512Z,11.43
2019-04-01T21:28:41.406Z,11.57
2019-04-01T21:31:15.067Z,10.23
2019-04-01T21:33:49.353Z,10.00
2019-04-01T21:36:21.687Z,9.90
2019-04-01T21:38:55.096Z,9.98
2019-04-01T21:41:28.886Z,10.43
2019-04-01T21:44:02.667Z,11.93
2019-04-01T21:46:36.441Z,12.40
2019-04-01T21:49:10.457Z,12.10
2019-04-01T21:51:43.310Z,12.10
2019-04-01T21:54:17.117Z,11.50
2019-04-01T21:56:52.018Z,10.95
2019-04-01T21:59:26.350Z,10.68
2019-04-01T22:02:00.000Z,9.13
2019-04-01T22:04:34.183Z,9.43
2019-04-01T22:07:07.405Z,9.38
2019-04-01T22:09:41.185Z,9.43
2019-04-01T22:12:15.302Z,8.28
2019-04-01T22:14:49.313Z,9.50
2019-04-01T22:17:24.141Z,9.50
2019-04-01T22:19:57.846Z,9.85
2019-04-01T22:22:30.716Z,9.45
2019-04-01T22:25:04.499Z,9.83
2019-04-01T22:27:38.655Z,9.98
2019-04-01T22:30:13.283Z,9.78
2019-04-01T22:32:46.958Z,9.80
2019-04-01T22:35:20.145Z,9.28
2019-04-01T22:37:53.381Z,8.23
2019-04-01T22:40:27.524Z,9.23
2019-04-01T22:43:01.733Z,8.38
2019-04-01T22:45:35.893Z,8.75
2019-04-01T22:48:08.675Z,7.65
2019-04-01T22:50:42.800Z,8.70
2019-04-01T22:53:16.509Z,7.62
2019-04-01T22:55:52.343Z,7.85
2019-04-01T22:58:26.478Z,8.75
2019-04-01T23:00:59.995Z,7.47
2019-04-01T23:03:33.274Z,7.47
2019-04-01T23:06:06.982Z,8.70
2019-04-01T23:08:40.824Z,9.30
2019-04-01T23:11:15.103Z,8.80
2019-04-01T23:13:49.008Z,10.25
2019-04-01T23:16:22.302Z,10.08
2019-04-01T23:18:56.441Z,8.03
2019-04-01T23:21:31.047Z,7.97
2019-04-01T23:24:04.826Z,8.53
2019-04-01T23:26:38.681Z,8.00
2019-04-01T23:29:12.566Z,8.70
2019-04-01T23:31:46.244Z,8.43
2019-04-01T23:34:21.516Z,8.58
2019-04-01T23:36:55.243Z,9.40
2019-04-01T23:39:29.227Z,9.10
2019-04-01T23:42:02.901Z,7.90
2019-04-01T23:44:36.145Z,8.98
2019-04-01T23:47:10.364Z,9.15
2019-04-01T23:49:44.327Z,8.58
2019-04-01T23:52:18.569Z,8.35
2019-04-01T23:54:52.658Z,8.98
2019-04-01T23:57:26.800Z,9.05
